sensor_id;sensor_type;location;lat;lon;timestamp;P1;durP1;ratioP1;P2;durP2;ratioP2
35667;SDS011;22158;59.280;17.806;2023-12-20T00:01:00;8.43;;;3.20;;
35667;SDS011;22158;59.280;17.806;2023-12-20T00:03:26;9.20;;;2.38;;
35667;SDS011;22158;59.280;17.806;2023-12-20T00:05:52;7.88;;;2.00;;
35667;SDS011;22158;59.280;17.806;2023-12-20T00:08:18;16.60;;;2.65;;
35667;SDS011;22158;59.280;17.806;2023-12-20T00:10:44;10.43;;;2.40;;
35667;SDS011;22158;59.280;17.806;2023-12-20T00:13:09;11.05;;;2.28;;
35667;SDS011;22158;59.280;17.806;2023-12-20T00:15:35;7.88;;;1.85;;
35667;SDS011;22158;59.280;17.806;2023-12-20T00:18:01;13.57;;;4.40;;
35667;SDS011;22158;59.280;17.806;2023-12-20T00:20:28;12.98;;;2.38;;
35667;SDS011;22158;59.280;17.806;2023-12-20T00:22:57;9.65;;;2.67;;
35667;SDS011;22158;59.280;17.806;2023-12-20T00:25:23;15.90;;;2.67;;
35667;SDS011;22158;59.280;17.806;2023-12-20T00:27:49;13.65;;;2.45;;
35667;SDS011;22158;59.280;17.806;2023-12-20T00:30:14;12.02;;;2.50;;
35667;SDS011;22158;59.280;17.806;2023-12-20T00:32:40;10.80;;;2.42;;
35667;SDS011;22158;59.280;17.806;2023-12-20T00:35:14;12.23;;;3.03;;
35667;SDS011;22158;59.280;17.806;2023-12-20T00:37:40;8.57;;;2.60;;
35667;SDS011;22158;59.280;17.806;2023-12-20T00:40:06;11.02;;;2.33;;
35667;SDS011;22158;59.280;17.806;2023-12-20T00:42:32;12.93;;;2.90;;
35667;SDS011;22158;59.280;17.806;2023-12-20T00:44:58;9.38;;;3.00;;
35667;SDS011;22158;59.280;17.806;2023-12-20T00:47:25;13.80;;;3.45;;
35667;SDS011;22158;59.280;17.806;2023-12-20T00:49:51;11.25;;;2.95;;
35667;SDS011;22158;59.280;17.806;2023-12-20T00:52:17;10.45;;;3.58;;
35667;SDS011;22158;59.280;17.806;2023-12-20T00:54:43;7.57;;;2.40;;
35667;SDS011;22158;59.280;17.806;2023-12-20T00:57:08;36.97;;;4.40;;
35667;SDS011;22158;59.280;17.806;2023-12-20T00:59:34;14.55;;;3.90;;
35667;SDS011;22158;59.280;17.806;2023-12-20T01:02:00;12.52;;;2.63;;
35667;SDS011;22158;59.280;17.806;2023-12-20T01:04:26;15.32;;;2.30;;
35667;SDS011;22158;59.280;17.806;2023-12-20T01:06:52;13.68;;;3.13;;
35667;SDS011;22158;59.280;17.806;2023-12-20T01:09:18;9.05;;;2.55;;
35667;SDS011;22158;59.280;17.806;2023-12-20T01:11:44;9.68;;;2.55;;
35667;SDS011;22158;59.280;17.806;2023-12-20T01:14:11;13.27;;;2.80;;
35667;SDS011;22158;59.280;17.806;2023-12-20T01:16:37;12.23;;;2.33;;
35667;SDS011;22158;59.280;17.806;2023-12-20T01:19:03;12.57;;;3.35;;
35667;SDS011;22158;59.280;17.806;2023-12-20T01:21:28;4.13;;;1.75;;
35667;SDS011;22158;59.280;17.806;2023-12-20T01:23:54;9.15;;;3.67;;
35667;SDS011;22158;59.280;17.806;2023-12-20T01:26:20;11.20;;;2.33;;
35667;SDS011;22158;59.280;17.806;2023-12-20T01:28:45;13.02;;;2.83;;
35667;SDS011;22158;59.280;17.806;2023-12-20T01:31:11;13.25;;;2.33;;
35667;SDS011;22158;59.280;17.806;2023-12-20T01:33:36;17.13;;;2.60;;
35667;SDS011;22158;59.280;17.806;2023-12-20T01:36:03;8.63;;;2.47;;
35667;SDS011;22158;59.280;17.806;2023-12-20T01:38:29;11.40;;;2.22;;
35667;SDS011;22158;59.280;17.806;2023-12-20T01:40:54;22.27;;;3.47;;
35667;SDS011;22158;59.280;17.806;2023-12-20T01:43:20;20.52;;;3.47;;
35667;SDS011;22158;59.280;17.806;2023-12-20T01:45:46;4.80;;;1.67;;
35667;SDS011;22158;59.280;17.806;2023-12-20T01:48:12;6.47;;;3.40;;
35667;SDS011;22158;59.280;17.806;2023-12-20T01:50:39;10.25;;;3.45;;
35667;SDS011;22158;59.280;17.806;2023-12-20T01:53:07;12.13;;;2.92;;
35667;SDS011;22158;59.280;17.806;2023-12-20T01:55:34;11.93;;;2.97;;
35667;SDS011;22158;59.280;17.806;2023-12-20T01:58:02;11.90;;;3.03;;
35667;SDS011;22158;59.280;17.806;2023-12-20T02:00:28;21.35;;;3.38;;
35667;SDS011;22158;59.280;17.806;2023-12-20T02:02:55;11.45;;;2.83;;
35667;SDS011;22158;59.280;17.806;2023-12-20T02:05:22;15.10;;;2.50;;
35667;SDS011;22158;59.280;17.806;2023-12-20T02:07:48;10.07;;;2.50;;
35667;SDS011;22158;59.280;17.806;2023-12-20T02:10:14;21.15;;;4.80;;
35667;SDS011;22158;59.280;17.806;2023-12-20T02:12:41;12.60;;;2.47;;
35667;SDS011;22158;59.280;17.806;2023-12-20T02:15:06;21.25;;;3.20;;
35667;SDS011;22158;59.280;17.806;2023-12-20T02:17:32;11.38;;;3.30;;
35667;SDS011;22158;59.280;17.806;2023-12-20T02:19:58;15.48;;;2.33;;
35667;SDS011;22158;59.280;17.806;2023-12-20T02:22:24;16.52;;;2.20;;
35667;SDS011;22158;59.280;17.806;2023-12-20T02:24:50;10.45;;;2.45;;
35667;SDS011;22158;59.280;17.806;2023-12-20T02:27:16;12.48;;;2.47;;
35667;SDS011;22158;59.280;17.806;2023-12-20T02:29:44;9.32;;;2.88;;
35667;SDS011;22158;59.280;17.806;2023-12-20T02:32:11;13.43;;;2.55;;
35667;SDS011;22158;59.280;17.806;2023-12-20T02:34:37;13.00;;;2.97;;
35667;SDS011;22158;59.280;17.806;2023-12-20T02:37:03;11.25;;;2.70;;
35667;SDS011;22158;59.280;17.806;2023-12-20T02:39:29;9.25;;;2.45;;
35667;SDS011;22158;59.280;17.806;2023-12-20T02:41:55;10.23;;;2.33;;
35667;SDS011;22158;59.280;17.806;2023-12-20T02:44:21;8.45;;;2.92;;
35667;SDS011;22158;59.280;17.806;2023-12-20T02:46:47;5.80;;;2.20;;
35667;SDS011;22158;59.280;17.806;2023-12-20T02:49:12;12.80;;;2.03;;
35667;SDS011;22158;59.280;17.806;2023-12-20T02:51:38;11.98;;;2.40;;
35667;SDS011;22158;59.280;17.806;2023-12-20T02:54:04;8.55;;;2.33;;
35667;SDS011;22158;59.280;17.806;2023-12-20T02:56:30;9.57;;;2.60;;
35667;SDS011;22158;59.280;17.806;2023-12-20T02:58:57;6.72;;;2.42;;
35667;SDS011;22158;59.280;17.806;2023-12-20T03:01:22;12.80;;;2.65;;
35667;SDS011;22158;59.280;17.806;2023-12-20T03:03:48;7.78;;;2.28;;
35667;SDS011;22158;59.280;17.806;2023-12-20T03:06:20;6.90;;;2.53;;
35667;SDS011;22158;59.280;17.806;2023-12-20T03:08:45;12.55;;;3.00;;
35667;SDS011;22158;59.280;17.806;2023-12-20T03:11:11;9.07;;;3.13;;
35667;SDS011;22158;59.280;17.806;2023-12-20T03:13:37;13.50;;;2.60;;
35667;SDS011;22158;59.280;17.806;2023-12-20T03:16:12;9.52;;;1.92;;
35667;SDS011;22158;59.280;17.806;2023-12-20T03:18:38;10.73;;;2.83;;
35667;SDS011;22158;59.280;17.806;2023-12-20T03:21:04;12.40;;;2.40;;
35667;SDS011;22158;59.280;17.806;2023-12-20T03:23:30;5.47;;;2.22;;
35667;SDS011;22158;59.280;17.806;2023-12-20T03:25:57;7.30;;;1.98;;
35667;SDS011;22158;59.280;17.806;2023-12-20T03:28:23;5.75;;;1.98;;
35667;SDS011;22158;59.280;17.806;2023-12-20T03:30:49;5.40;;;2.05;;
35667;SDS011;22158;59.280;17.806;2023-12-20T03:33:15;10.10;;;2.55;;
35667;SDS011;22158;59.280;17.806;2023-12-20T03:35:40;6.32;;;2.83;;
35667;SDS011;22158;59.280;17.806;2023-12-20T03:38:06;9.30;;;2.38;;
35667;SDS011;22158;59.280;17.806;2023-12-20T03:40:32;14.25;;;3.10;;
35667;SDS011;22158;59.280;17.806;2023-12-20T03:42:58;8.95;;;2.13;;
35667;SDS011;22158;59.280;17.806;2023-12-20T03:45:23;10.55;;;3.05;;
35667;SDS011;22158;59.280;17.806;2023-12-20T03:47:49;7.55;;;2.42;;
35667;SDS011;22158;59.280;17.806;2023-12-20T03:50:15;11.13;;;3.20;;
35667;SDS011;22158;59.280;17.806;2023-12-20T03:52:40;14.50;;;2.92;;
35667;SDS011;22158;59.280;17.806;2023-12-20T03:55:06;14.50;;;2.97;;
35667;SDS011;22158;59.280;17.806;2023-12-20T03:57:32;4.30;;;2.17;;
35667;SDS011;22158;59.280;17.806;2023-12-20T03:59:57;13.25;;;2.53;;
35667;SDS011;22158;59.280;17.806;2023-12-20T04:02:23;12.90;;;2.20;;
35667;SDS011;22158;59.280;17.806;2023-12-20T04:04:49;11.43;;;2.40;;
35667;SDS011;22158;59.280;17.806;2023-12-20T04:07:14;9.35;;;2.75;;
35667;SDS011;22158;59.280;17.806;2023-12-20T04:09:40;23.90;;;3.42;;
35667;SDS011;22158;59.280;17.806;2023-12-20T04:12:06;5.72;;;2.45;;
35667;SDS011;22158;59.280;17.806;2023-12-20T04:14:32;15.07;;;3.10;;
35667;SDS011;22158;59.280;17.806;2023-12-20T04:16:58;9.02;;;2.47;;
35667;SDS011;22158;59.280;17.806;2023-12-20T04:19:23;10.85;;;3.17;;
35667;SDS011;22158;59.280;17.806;2023-12-20T04:21:49;11.40;;;2.78;;
35667;SDS011;22158;59.280;17.806;2023-12-20T04:24:15;12.27;;;2.60;;
35667;SDS011;22158;59.280;17.806;2023-12-20T04:26:41;6.53;;;2.08;;
35667;SDS011;22158;59.280;17.806;2023-12-20T04:29:06;9.88;;;1.88;;
35667;SDS011;22158;59.280;17.806;2023-12-20T04:31:32;11.50;;;3.38;;
35667;SDS011;22158;59.280;17.806;2023-12-20T04:33:57;7.18;;;2.55;;
35667;SDS011;22158;59.280;17.806;2023-12-20T04:36:23;7.75;;;2.35;;
35667;SDS011;22158;59.280;17.806;2023-12-20T04:38:51;6.97;;;2.30;;
35667;SDS011;22158;59.280;17.806;2023-12-20T04:41:18;10.35;;;2.33;;
35667;SDS011;22158;59.280;17.806;2023-12-20T04:43:44;8.35;;;2.55;;
35667;SDS011;22158;59.280;17.806;2023-12-20T04:46:09;9.70;;;4.60;;
35667;SDS011;22158;59.280;17.806;2023-12-20T04:48:35;6.78;;;2.35;;
35667;SDS011;22158;59.280;17.806;2023-12-20T04:51:01;8.95;;;2.42;;
35667;SDS011;22158;59.280;17.806;2023-12-20T04:53:27;5.63;;;2.10;;
35667;SDS011;22158;59.280;17.806;2023-12-20T04:55:53;7.57;;;1.95;;
35667;SDS011;22158;59.280;17.806;2023-12-20T04:58:18;4.80;;;2.00;;
35667;SDS011;22158;59.280;17.806;2023-12-20T05:00:44;5.95;;;2.10;;
35667;SDS011;22158;59.280;17.806;2023-12-20T05:03:10;4.70;;;2.72;;
35667;SDS011;22158;59.280;17.806;2023-12-20T05:05:36;10.02;;;2.55;;
35667;SDS011;22158;59.280;17.806;2023-12-20T05:08:01;11.90;;;3.88;;
35667;SDS011;22158;59.280;17.806;2023-12-20T05:10:27;9.82;;;2.65;;
35667;SDS011;22158;59.280;17.806;2023-12-20T05:12:53;10.80;;;3.33;;
35667;SDS011;22158;59.280;17.806;2023-12-20T05:15:18;13.35;;;2.40;;
35667;SDS011;22158;59.280;17.806;2023-12-20T05:17:44;13.45;;;2.13;;
35667;SDS011;22158;59.280;17.806;2023-12-20T05:20:10;8.40;;;2.42;;
35667;SDS011;22158;59.280;17.806;2023-12-20T05:22:35;16.83;;;2.65;;
35667;SDS011;22158;59.280;17.806;2023-12-20T05:25:01;10.40;;;2.47;;
35667;SDS011;22158;59.280;17.806;2023-12-20T05:27:27;10.85;;;2.75;;
35667;SDS011;22158;59.280;17.806;2023-12-20T05:29:53;9.30;;;4.22;;
35667;SDS011;22158;59.280;17.806;2023-12-20T05:32:22;13.77;;;3.03;;
35667;SDS011;22158;59.280;17.806;2023-12-20T05:34:48;16.20;;;3.20;;
35667;SDS011;22158;59.280;17.806;2023-12-20T05:37:14;12.82;;;3.30;;
35667;SDS011;22158;59.280;17.806;2023-12-20T05:39:39;7.82;;;3.20;;
35667;SDS011;22158;59.280;17.806;2023-12-20T05:42:05;12.20;;;2.80;;
35667;SDS011;22158;59.280;17.806;2023-12-20T05:44:30;17.63;;;2.78;;
35667;SDS011;22158;59.280;17.806;2023-12-20T05:46:56;19.48;;;2.63;;
35667;SDS011;22158;59.280;17.806;2023-12-20T05:49:22;12.23;;;3.55;;
35667;SDS011;22158;59.280;17.806;2023-12-20T05:51:47;9.55;;;2.55;;
35667;SDS011;22158;59.280;17.806;2023-12-20T05:54:13;11.75;;;3.13;;
35667;SDS011;22158;59.280;17.806;2023-12-20T05:56:39;10.05;;;3.22;;
35667;SDS011;22158;59.280;17.806;2023-12-20T05:59:04;14.93;;;2.78;;
35667;SDS011;22158;59.280;17.806;2023-12-20T06:01:30;11.95;;;3.03;;
35667;SDS011;22158;59.280;17.806;2023-12-20T06:03:55;10.90;;;2.80;;
35667;SDS011;22158;59.280;17.806;2023-12-20T06:06:21;8.32;;;2.58;;
35667;SDS011;22158;59.280;17.806;2023-12-20T06:08:47;11.52;;;2.70;;
35667;SDS011;22158;59.280;17.806;2023-12-20T06:11:12;11.25;;;3.50;;
35667;SDS011;22158;59.280;17.806;2023-12-20T06:13:38;21.48;;;5.05;;
35667;SDS011;22158;59.280;17.806;2023-12-20T06:16:05;10.40;;;3.03;;
35667;SDS011;22158;59.280;17.806;2023-12-20T06:18:32;7.47;;;3.00;;
35667;SDS011;22158;59.280;17.806;2023-12-20T06:20:58;8.27;;;2.30;;
35667;SDS011;22158;59.280;17.806;2023-12-20T06:23:23;15.23;;;3.90;;
35667;SDS011;22158;59.280;17.806;2023-12-20T06:25:49;18.58;;;4.38;;
35667;SDS011;22158;59.280;17.806;2023-12-20T06:28:15;13.63;;;4.25;;
35667;SDS011;22158;59.280;17.806;2023-12-20T06:30:40;15.00;;;2.42;;
35667;SDS011;22158;59.280;17.806;2023-12-20T06:33:06;11.75;;;2.95;;
35667;SDS011;22158;59.280;17.806;2023-12-20T06:35:32;9.90;;;2.60;;
35667;SDS011;22158;59.280;17.806;2023-12-20T06:37:58;14.63;;;3.30;;
35667;SDS011;22158;59.280;17.806;2023-12-20T06:40:23;10.25;;;3.13;;
35667;SDS011;22158;59.280;17.806;2023-12-20T06:42:49;12.02;;;4.35;;
35667;SDS011;22158;59.280;17.806;2023-12-20T06:45:15;23.15;;;3.83;;
35667;SDS011;22158;59.280;17.806;2023-12-20T06:47:40;8.35;;;3.35;;
35667;SDS011;22158;59.280;17.806;2023-12-20T06:50:06;12.30;;;4.70;;
35667;SDS011;22158;59.280;17.806;2023-12-20T06:52:33;19.20;;;4.35;;
35667;SDS011;22158;59.280;17.806;2023-12-20T06:55:00;17.63;;;5.25;;
35667;SDS011;22158;59.280;17.806;2023-12-20T06:57:26;12.40;;;4.60;;
35667;SDS011;22158;59.280;17.806;2023-12-20T06:59:52;36.17;;;6.68;;
35667;SDS011;22158;59.280;17.806;2023-12-20T07:02:18;15.32;;;4.45;;
35667;SDS011;22158;59.280;17.806;2023-12-20T07:04:44;8.40;;;4.05;;
35667;SDS011;22158;59.280;17.806;2023-12-20T07:07:09;12.23;;;3.35;;
35667;SDS011;22158;59.280;17.806;2023-12-20T07:09:35;14.10;;;3.65;;
35667;SDS011;22158;59.280;17.806;2023-12-20T07:12:00;15.38;;;4.18;;
35667;SDS011;22158;59.280;17.806;2023-12-20T07:14:27;15.15;;;3.92;;
35667;SDS011;22158;59.280;17.806;2023-12-20T07:16:53;13.90;;;3.70;;
35667;SDS011;22158;59.280;17.806;2023-12-20T07:19:18;9.93;;;3.28;;
35667;SDS011;22158;59.280;17.806;2023-12-20T07:21:44;10.02;;;3.33;;
35667;SDS011;22158;59.280;17.806;2023-12-20T07:24:10;9.18;;;4.22;;
35667;SDS011;22158;59.280;17.806;2023-12-20T07:26:36;12.18;;;2.90;;
35667;SDS011;22158;59.280;17.806;2023-12-20T07:29:03;13.27;;;4.05;;
35667;SDS011;22158;59.280;17.806;2023-12-20T07:31:29;22.17;;;3.92;;
35667;SDS011;22158;59.280;17.806;2023-12-20T07:33:54;19.23;;;3.88;;
35667;SDS011;22158;59.280;17.806;2023-12-20T07:36:20;11.23;;;3.88;;
35667;SDS011;22158;59.280;17.806;2023-12-20T07:38:46;16.67;;;3.15;;
35667;SDS011;22158;59.280;17.806;2023-12-20T07:41:12;21.33;;;4.57;;
35667;SDS011;22158;59.280;17.806;2023-12-20T07:43:38;9.88;;;3.33;;
35667;SDS011;22158;59.280;17.806;2023-12-20T07:46:07;13.70;;;3.40;;
35667;SDS011;22158;59.280;17.806;2023-12-20T07:48:36;9.07;;;3.15;;
35667;SDS011;22158;59.280;17.806;2023-12-20T07:51:03;11.43;;;3.65;;
35667;SDS011;22158;59.280;17.806;2023-12-20T07:53:30;14.30;;;4.03;;
35667;SDS011;22158;59.280;17.806;2023-12-20T07:55:56;10.10;;;3.45;;
35667;SDS011;22158;59.280;17.806;2023-12-20T07:58:22;14.48;;;4.20;;
35667;SDS011;22158;59.280;17.806;2023-12-20T08:00:47;13.10;;;3.75;;
35667;SDS011;22158;59.280;17.806;2023-12-20T08:03:13;11.63;;;3.88;;
35667;SDS011;22158;59.280;17.806;2023-12-20T08:05:39;15.77;;;3.58;;
35667;SDS011;22158;59.280;17.806;2023-12-20T08:08:05;7.78;;;2.50;;
35667;SDS011;22158;59.280;17.806;2023-12-20T08:10:31;8.15;;;3.13;;
35667;SDS011;22158;59.280;17.806;2023-12-20T08:12:57;10.60;;;3.30;;
35667;SDS011;22158;59.280;17.806;2023-12-20T08:15:23;6.43;;;2.63;;
35667;SDS011;22158;59.280;17.806;2023-12-20T08:17:48;8.77;;;3.58;;
35667;SDS011;22158;59.280;17.806;2023-12-20T08:20:18;6.97;;;2.97;;
35667;SDS011;22158;59.280;17.806;2023-12-20T08:22:44;14.10;;;3.40;;
35667;SDS011;22158;59.280;17.806;2023-12-20T08:25:09;15.27;;;3.63;;
35667;SDS011;22158;59.280;17.806;2023-12-20T08:27:39;18.27;;;3.50;;
35667;SDS011;22158;59.280;17.806;2023-12-20T08:30:05;13.38;;;3.47;;
35667;SDS011;22158;59.280;17.806;2023-12-20T08:32:33;10.35;;;2.70;;
35667;SDS011;22158;59.280;17.806;2023-12-20T08:34:59;9.90;;;2.47;;
35667;SDS011;22158;59.280;17.806;2023-12-20T08:37:25;7.20;;;2.90;;
35667;SDS011;22158;59.280;17.806;2023-12-20T08:39:50;24.73;;;4.55;;
35667;SDS011;22158;59.280;17.806;2023-12-20T08:42:16;12.45;;;2.90;;
35667;SDS011;22158;59.280;17.806;2023-12-20T08:44:42;8.57;;;2.90;;
35667;SDS011;22158;59.280;17.806;2023-12-20T08:47:07;10.55;;;2.47;;
35667;SDS011;22158;59.280;17.806;2023-12-20T08:49:33;10.23;;;2.33;;
35667;SDS011;22158;59.280;17.806;2023-12-20T08:51:59;11.88;;;2.08;;
35667;SDS011;22158;59.280;17.806;2023-12-20T08:54:24;9.90;;;2.80;;
35667;SDS011;22158;59.280;17.806;2023-12-20T08:56:50;11.30;;;3.92;;
35667;SDS011;22158;59.280;17.806;2023-12-20T08:59:16;11.80;;;2.55;;
35667;SDS011;22158;59.280;17.806;2023-12-20T09:01:43;14.00;;;3.30;;
35667;SDS011;22158;59.280;17.806;2023-12-20T09:04:09;11.60;;;2.60;;
35667;SDS011;22158;59.280;17.806;2023-12-20T09:06:34;10.10;;;2.60;;
35667;SDS011;22158;59.280;17.806;2023-12-20T09:09:00;11.27;;;2.53;;
35667;SDS011;22158;59.280;17.806;2023-12-20T09:11:26;8.07;;;3.08;;
35667;SDS011;22158;59.280;17.806;2023-12-20T09:13:51;7.88;;;2.72;;
35667;SDS011;22158;59.280;17.806;2023-12-20T09:16:17;14.88;;;2.75;;
35667;SDS011;22158;59.280;17.806;2023-12-20T09:18:42;9.50;;;4.35;;
35667;SDS011;22158;59.280;17.806;2023-12-20T09:21:08;11.70;;;2.97;;
35667;SDS011;22158;59.280;17.806;2023-12-20T09:23:34;6.47;;;2.38;;
35667;SDS011;22158;59.280;17.806;2023-12-20T09:26:00;8.65;;;2.70;;
35667;SDS011;22158;59.280;17.806;2023-12-20T09:28:26;12.27;;;2.80;;
35667;SDS011;22158;59.280;17.806;2023-12-20T09:30:51;13.93;;;3.10;;
35667;SDS011;22158;59.280;17.806;2023-12-20T09:33:17;12.38;;;4.22;;
35667;SDS011;22158;59.280;17.806;2023-12-20T09:35:42;8.13;;;2.60;;
35667;SDS011;22158;59.280;17.806;2023-12-20T09:38:09;12.93;;;3.75;;
35667;SDS011;22158;59.280;17.806;2023-12-20T09:40:34;11.40;;;2.40;;
35667;SDS011;22158;59.280;17.806;2023-12-20T09:43:03;8.52;;;2.60;;
35667;SDS011;22158;59.280;17.806;2023-12-20T09:45:34;12.05;;;2.83;;
35667;SDS011;22158;59.280;17.806;2023-12-20T09:47:59;16.17;;;3.40;;
35667;SDS011;22158;59.280;17.806;2023-12-20T09:50:26;11.70;;;2.67;;
35667;SDS011;22158;59.280;17.806;2023-12-20T09:52:52;10.98;;;3.65;;
35667;SDS011;22158;59.280;17.806;2023-12-20T09:55:21;9.95;;;2.70;;
35667;SDS011;22158;59.280;17.806;2023-12-20T09:57:47;10.27;;;2.53;;
35667;SDS011;22158;59.280;17.806;2023-12-20T10:00:13;8.73;;;3.10;;
35667;SDS011;22158;59.280;17.806;2023-12-20T10:02:58;6.50;;;2.45;;
35667;SDS011;22158;59.280;17.806;2023-12-20T10:05:29;7.53;;;2.00;;
35667;SDS011;22158;59.280;17.806;2023-12-20T10:07:58;12.20;;;2.60;;
35667;SDS011;22158;59.280;17.806;2023-12-20T10:10:25;8.80;;;2.60;;
35667;SDS011;22158;59.280;17.806;2023-12-20T10:13:07;8.50;;;2.03;;
35667;SDS011;22158;59.280;17.806;2023-12-20T10:15:35;13.73;;;2.40;;
35667;SDS011;22158;59.280;17.806;2023-12-20T10:18:02;7.78;;;2.50;;
35667;SDS011;22158;59.280;17.806;2023-12-20T10:20:29;11.13;;;1.95;;
35667;SDS011;22158;59.280;17.806;2023-12-20T10:22:55;9.18;;;2.72;;
35667;SDS011;22158;59.280;17.806;2023-12-20T10:25:22;9.82;;;2.08;;
35667;SDS011;22158;59.280;17.806;2023-12-20T10:27:49;11.95;;;2.10;;
35667;SDS011;22158;59.280;17.806;2023-12-20T10:30:15;11.02;;;2.67;;
35667;SDS011;22158;59.280;17.806;2023-12-20T10:32:41;6.97;;;1.55;;
35667;SDS011;22158;59.280;17.806;2023-12-20T10:35:08;9.88;;;2.13;;
35667;SDS011;22158;59.280;17.806;2023-12-20T10:37:37;10.10;;;2.85;;
35667;SDS011;22158;59.280;17.806;2023-12-20T10:40:03;10.68;;;2.55;;
35667;SDS011;22158;59.280;17.806;2023-12-20T10:42:31;8.20;;;2.53;;
35667;SDS011;22158;59.280;17.806;2023-12-20T10:44:58;7.20;;;2.50;;
35667;SDS011;22158;59.280;17.806;2023-12-20T10:47:25;8.50;;;2.85;;
35667;SDS011;22158;59.280;17.806;2023-12-20T10:49:54;7.57;;;2.55;;
35667;SDS011;22158;59.280;17.806;2023-12-20T10:52:21;8.00;;;1.73;;
35667;SDS011;22158;59.280;17.806;2023-12-20T10:54:48;13.50;;;2.75;;
35667;SDS011;22158;59.280;17.806;2023-12-20T10:57:13;3.60;;;1.65;;
35667;SDS011;22158;59.280;17.806;2023-12-20T10:59:43;11.40;;;4.45;;
35667;SDS011;22158;59.280;17.806;2023-12-20T11:02:12;8.30;;;3.40;;
35667;SDS011;22158;59.280;17.806;2023-12-20T11:04:50;9.90;;;4.00;;
35667;SDS011;22158;59.280;17.806;2023-12-20T11:07:23;18.30;;;6.07;;
35667;SDS011;22158;59.280;17.806;2023-12-20T11:09:57;13.07;;;5.05;;
35667;SDS011;22158;59.280;17.806;2023-12-20T11:12:29;6.53;;;3.25;;
35667;SDS011;22158;59.280;17.806;2023-12-20T11:15:02;5.40;;;2.30;;
35667;SDS011;22158;59.280;17.806;2023-12-20T11:17:29;7.20;;;2.45;;
35667;SDS011;22158;59.280;17.806;2023-12-20T11:22:25;14.57;;;4.65;;
35667;SDS011;22158;59.280;17.806;2023-12-20T11:24:53;26.20;;;7.68;;
35667;SDS011;22158;59.280;17.806;2023-12-20T11:27:19;27.58;;;9.13;;
35667;SDS011;22158;59.280;17.806;2023-12-20T11:29:56;12.70;;;5.65;;
35667;SDS011;22158;59.280;17.806;2023-12-20T11:35:38;7.35;;;3.00;;
35667;SDS011;22158;59.280;17.806;2023-12-20T11:37:40;7.63;;;3.05;;
35667;SDS011;22158;59.280;17.806;2023-12-20T11:40:13;9.82;;;2.22;;
35667;SDS011;22158;59.280;17.806;2023-12-20T11:42:46;8.23;;;2.42;;
35667;SDS011;22158;59.280;17.806;2023-12-20T11:45:15;7.03;;;1.88;;
35667;SDS011;22158;59.280;17.806;2023-12-20T11:47:43;8.93;;;2.08;;
35667;SDS011;22158;59.280;17.806;2023-12-20T11:50:11;5.45;;;1.60;;
35667;SDS011;22158;59.280;17.806;2023-12-20T11:52:36;3.08;;;1.50;;
35667;SDS011;22158;59.280;17.806;2023-12-20T11:55:02;2.85;;;1.42;;
35667;SDS011;22158;59.280;17.806;2023-12-20T11:57:29;4.53;;;1.52;;
35667;SDS011;22158;59.280;17.806;2023-12-20T11:59:55;6.28;;;2.13;;
35667;SDS011;22158;59.280;17.806;2023-12-20T12:02:21;6.70;;;2.47;;
35667;SDS011;22158;59.280;17.806;2023-12-20T12:04:48;4.95;;;2.53;;
35667;SDS011;22158;59.280;17.806;2023-12-20T12:07:14;5.75;;;2.42;;
35667;SDS011;22158;59.280;17.806;2023-12-20T12:09:39;5.38;;;2.10;;
35667;SDS011;22158;59.280;17.806;2023-12-20T12:12:05;5.85;;;1.73;;
35667;SDS011;22158;59.280;17.806;2023-12-20T12:14:32;5.18;;;2.22;;
35667;SDS011;22158;59.280;17.806;2023-12-20T12:16:57;9.18;;;3.03;;
35667;SDS011;22158;59.280;17.806;2023-12-20T12:19:23;4.53;;;1.83;;
35667;SDS011;22158;59.280;17.806;2023-12-20T12:21:50;4.60;;;1.65;;
35667;SDS011;22158;59.280;17.806;2023-12-20T12:24:19;3.42;;;1.83;;
35667;SDS011;22158;59.280;17.806;2023-12-20T12:26:50;3.63;;;1.30;;
35667;SDS011;22158;59.280;17.806;2023-12-20T12:29:16;4.30;;;1.20;;
35667;SDS011;22158;59.280;17.806;2023-12-20T12:31:42;4.07;;;1.10;;
35667;SDS011;22158;59.280;17.806;2023-12-20T12:34:08;2.72;;;1.20;;
35667;SDS011;22158;59.280;17.806;2023-12-20T12:36:34;3.33;;;1.00;;
35667;SDS011;22158;59.280;17.806;2023-12-20T12:39:02;1.45;;;0.93;;
35667;SDS011;22158;59.280;17.806;2023-12-20T12:41:31;2.53;;;1.02;;
35667;SDS011;22158;59.280;17.806;2023-12-20T12:43:57;1.33;;;1.00;;
35667;SDS011;22158;59.280;17.806;2023-12-20T12:46:22;2.15;;;1.00;;
35667;SDS011;22158;59.280;17.806;2023-12-20T12:48:48;2.58;;;1.67;;
35667;SDS011;22158;59.280;17.806;2023-12-20T12:51:15;4.15;;;1.48;;
35667;SDS011;22158;59.280;17.806;2023-12-20T12:53:41;4.07;;;1.67;;
35667;SDS011;22158;59.280;17.806;2023-12-20T12:56:07;2.85;;;1.50;;
35667;SDS011;22158;59.280;17.806;2023-12-20T12:58:33;2.65;;;1.63;;
35667;SDS011;22158;59.280;17.806;2023-12-20T13:00:59;3.92;;;1.67;;
35667;SDS011;22158;59.280;17.806;2023-12-20T13:03:24;6.00;;;1.85;;
35667;SDS011;22158;59.280;17.806;2023-12-20T13:05:50;5.15;;;2.03;;
35667;SDS011;22158;59.280;17.806;2023-12-20T13:08:16;4.25;;;1.40;;
35667;SDS011;22158;59.280;17.806;2023-12-20T13:10:41;5.35;;;1.70;;
35667;SDS011;22158;59.280;17.806;2023-12-20T13:13:07;7.93;;;2.10;;
35667;SDS011;22158;59.280;17.806;2023-12-20T13:15:33;4.70;;;1.60;;
35667;SDS011;22158;59.280;17.806;2023-12-20T13:17:58;6.20;;;1.60;;
35667;SDS011;22158;59.280;17.806;2023-12-20T13:20:25;4.40;;;1.60;;
35667;SDS011;22158;59.280;17.806;2023-12-20T13:22:50;4.00;;;1.67;;
35667;SDS011;22158;59.280;17.806;2023-12-20T13:25:16;6.60;;;1.77;;
35667;SDS011;22158;59.280;17.806;2023-12-20T13:27:42;5.20;;;1.75;;
35667;SDS011;22158;59.280;17.806;2023-12-20T13:30:08;7.30;;;1.95;;
35667;SDS011;22158;59.280;17.806;2023-12-20T13:32:34;7.88;;;2.03;;
35667;SDS011;22158;59.280;17.806;2023-12-20T13:35:00;5.32;;;1.75;;
35667;SDS011;22158;59.280;17.806;2023-12-20T13:37:26;6.80;;;2.28;;
35667;SDS011;22158;59.280;17.806;2023-12-20T13:39:51;5.80;;;1.63;;
35667;SDS011;22158;59.280;17.806;2023-12-20T13:42:17;8.70;;;2.90;;
35667;SDS011;22158;59.280;17.806;2023-12-20T13:44:43;5.95;;;1.67;;
35667;SDS011;22158;59.280;17.806;2023-12-20T13:47:09;4.93;;;1.70;;
35667;SDS011;22158;59.280;17.806;2023-12-20T13:49:34;5.25;;;2.25;;
35667;SDS011;22158;59.280;17.806;2023-12-20T13:52:00;5.13;;;2.00;;
35667;SDS011;22158;59.280;17.806;2023-12-20T13:54:26;7.97;;;1.80;;
35667;SDS011;22158;59.280;17.806;2023-12-20T13:56:51;8.75;;;2.00;;
35667;SDS011;22158;59.280;17.806;2023-12-20T13:59:17;9.52;;;1.67;;
35667;SDS011;22158;59.280;17.806;2023-12-20T14:01:42;9.85;;;1.98;;
35667;SDS011;22158;59.280;17.806;2023-12-20T14:04:08;9.52;;;1.60;;
35667;SDS011;22158;59.280;17.806;2023-12-20T14:06:34;7.47;;;1.55;;
35667;SDS011;22158;59.280;17.806;2023-12-20T14:09:00;8.10;;;2.03;;
35667;SDS011;22158;59.280;17.806;2023-12-20T14:11:26;7.60;;;1.70;;
35667;SDS011;22158;59.280;17.806;2023-12-20T14:13:51;6.03;;;2.03;;
35667;SDS011;22158;59.280;17.806;2023-12-20T14:16:17;2.83;;;1.35;;
35667;SDS011;22158;59.280;17.806;2023-12-20T14:18:42;4.13;;;1.45;;
35667;SDS011;22158;59.280;17.806;2023-12-20T14:21:08;5.57;;;1.88;;
35667;SDS011;22158;59.280;17.806;2023-12-20T14:23:34;6.57;;;2.15;;
35667;SDS011;22158;59.280;17.806;2023-12-20T14:26:00;9.13;;;2.15;;
35667;SDS011;22158;59.280;17.806;2023-12-20T14:28:27;4.57;;;2.03;;